Bad Gleichenberg, Austria
Current Conditions -  °F | °C
As of 5:50 AM on Wednesday 22 Oct 2014 (Local Time) from LOWG Reporting Station
Thunderstorm Thunderstorm  
Wind Chill: 42°   Ceiling: 4500
Heat Index: 45°   Visibility: 6mi
Dew Point: 39°   Wind: 5mph
Humidity: 81%   Direction: 310°NW
Pressure: 29.71"   Gusts: NA
Location:  46.88°N, 15.91°E
Report Text: LOWG 220350Z 31004KT 270V340 9999 -TSRA SCT035 FEW040CB BKN045 07/04 Q1006 BECMG -RA
Loading
Personal Weather Stations






























Interactive Weather Map
Tropical Storm Tracking
New forecast layout! Learn more

10-Day Weather Forecast

Advertisements
Track Severe Weather on mobile